createdAt,value
2023-03-19T00:00:33.914Z,40.65
2023-03-19T00:03:00.675Z,32.88
2023-03-19T00:05:27.252Z,35.78
2023-03-19T00:07:53.644Z,40.40
2023-03-19T00:10:20.557Z,39.13
2023-03-19T00:12:47.392Z,37.95
2023-03-19T00:15:15.324Z,33.90
2023-03-19T00:17:43.004Z,36.88
2023-03-19T00:20:11.677Z,33.78
2023-03-19T00:22:39.800Z,37.10
2023-03-19T00:25:08.152Z,39.30
2023-03-19T00:27:34.852Z,40.47
2023-03-19T00:30:02.537Z,32.80
2023-03-19T00:32:29.287Z,35.03
2023-03-19T00:34:55.716Z,33.40
2023-03-19T00:37:22.541Z,34.70
2023-03-19T00:39:49.158Z,37.78
2023-03-19T00:42:15.638Z,37.65
2023-03-19T00:44:42.114Z,35.20
2023-03-19T00:47:08.645Z,37.13
2023-03-19T00:49:35.269Z,42.30
2023-03-19T00:52:01.763Z,33.90
2023-03-19T00:54:28.176Z,33.13
2023-03-19T00:56:54.590Z,35.90
2023-03-19T00:59:21.032Z,31.27
2023-03-19T01:01:47.569Z,33.97
2023-03-19T01:04:15.108Z,29.67
2023-03-19T01:06:41.837Z,30.17
2023-03-19T01:09:08.467Z,37.33
2023-03-19T01:11:35.262Z,33.60
2023-03-19T01:14:02.484Z,35.83
2023-03-19T01:16:29.123Z,33.90
2023-03-19T01:18:55.625Z,38.60
2023-03-19T01:21:22.077Z,34.17
2023-03-19T01:23:48.686Z,34.33
2023-03-19T01:26:15.313Z,33.47
2023-03-19T01:28:41.900Z,32.63
2023-03-19T01:31:09.522Z,32.60
2023-03-19T01:33:37.584Z,31.23
2023-03-19T01:36:05.479Z,32.88
2023-03-19T01:38:32.542Z,29.92
2023-03-19T01:40:59.246Z,30.58
2023-03-19T01:43:28.782Z,29.55
2023-03-19T01:46:27.090Z,36.20
2023-03-19T01:49:00.101Z,31.95
2023-03-19T01:51:31.962Z,31.63
2023-03-19T01:54:09.377Z,32.22
2023-03-19T01:56:38.609Z,29.73
2023-03-19T01:59:17.872Z,27.95
2023-03-19T02:01:58.249Z,29.45
2023-03-19T02:04:27.296Z,28.02
2023-03-19T02:06:58.032Z,26.85
2023-03-19T02:09:26.097Z,29.88
2023-03-19T02:11:54.189Z,30.48
2023-03-19T02:14:21.507Z,26.05
2023-03-19T02:16:48.219Z,27.55
2023-03-19T02:19:22.102Z,26.33
2023-03-19T02:21:49.619Z,26.13
2023-03-19T02:24:22.975Z,27.23
2023-03-19T02:26:50.562Z,28.92
2023-03-19T02:29:17.415Z,25.42
2023-03-19T02:31:44.249Z,27.73
2023-03-19T02:34:38.715Z,25.90
2023-03-19T02:37:19.775Z,26.30
2023-03-19T02:40:04.713Z,25.77
2023-03-19T02:42:31.493Z,27.08
2023-03-19T02:44:58.411Z,24.23
2023-03-19T02:47:26.380Z,26.13
2023-03-19T02:49:53.224Z,27.05
2023-03-19T02:52:20.190Z,25.95
2023-03-19T02:54:46.688Z,25.90
2023-03-19T02:57:13.497Z,23.58
2023-03-19T02:59:40.120Z,23.23
2023-03-19T03:02:07.095Z,25.25
2023-03-19T03:04:34.823Z,24.98
2023-03-19T03:07:01.715Z,25.98
2023-03-19T03:09:28.169Z,26.02
2023-03-19T03:11:54.672Z,24.77
2023-03-19T03:14:21.109Z,24.90
2023-03-19T03:16:47.541Z,24.77
2023-03-19T03:19:14.218Z,25.95
2023-03-19T03:21:41.200Z,25.30
2023-03-19T03:24:07.993Z,24.65
2023-03-19T03:26:35.999Z,24.65
2023-03-19T03:29:02.491Z,26.00
2023-03-19T03:31:30.261Z,25.05
2023-03-19T03:33:56.732Z,25.13
2023-03-19T03:36:23.730Z,26.02
2023-03-19T03:38:50.333Z,24.40
2023-03-19T03:41:16.878Z,25.17
2023-03-19T03:43:43.307Z,24.73
2023-03-19T03:46:09.845Z,25.60
2023-03-19T03:48:36.294Z,25.73
2023-03-19T03:51:03.345Z,25.33
2023-03-19T03:53:32.459Z,24.98
2023-03-19T03:55:59.295Z,24.63
2023-03-19T03:58:25.987Z,24.52
2023-03-19T04:00:52.705Z,24.95
2023-03-19T04:03:19.521Z,24.55
2023-03-19T04:05:46.256Z,24.10
2023-03-19T04:08:12.756Z,22.92
2023-03-19T04:10:40.652Z,24.83
2023-03-19T04:13:07.102Z,24.27
2023-03-19T04:15:33.999Z,24.10
2023-03-19T04:18:01.100Z,23.27
2023-03-19T04:20:27.573Z,23.27
2023-03-19T04:22:53.974Z,22.10
2023-03-19T04:25:20.645Z,22.65
2023-03-19T04:27:47.131Z,22.58
2023-03-19T04:30:14.382Z,22.85
2023-03-19T04:32:41.061Z,22.40
2023-03-19T04:35:08.155Z,24.58
2023-03-19T04:37:34.988Z,24.83
2023-03-19T04:40:01.473Z,23.92
2023-03-19T04:42:28.043Z,23.50
2023-03-19T04:44:54.506Z,24.17
2023-03-19T04:47:21.034Z,24.17
2023-03-19T04:49:48.799Z,24.77
2023-03-19T04:52:18.913Z,23.95
2023-03-19T04:54:45.663Z,24.85
2023-03-19T04:57:12.431Z,24.77
2023-03-19T04:59:38.886Z,24.80
2023-03-19T05:02:06.096Z,23.92
2023-03-19T05:04:32.624Z,24.92
2023-03-19T05:06:59.264Z,25.77
2023-03-19T05:09:26.056Z,25.90
2023-03-19T05:11:52.541Z,25.02
2023-03-19T05:14:19.057Z,26.88
2023-03-19T05:16:45.505Z,25.17
2023-03-19T05:19:12.207Z,26.35
2023-03-19T05:21:39.031Z,26.20
2023-03-19T05:24:05.509Z,27.25
2023-03-19T05:26:32.309Z,25.98
2023-03-19T05:28:58.892Z,25.88
2023-03-19T05:31:25.705Z,27.50
2023-03-19T05:33:52.350Z,26.73
2023-03-19T05:36:19.094Z,26.40
2023-03-19T05:38:45.852Z,26.92
2023-03-19T05:41:12.344Z,27.35
2023-03-19T05:43:38.780Z,27.52
2023-03-19T05:46:05.338Z,27.02
2023-03-19T05:48:31.913Z,28.25
2023-03-19T05:50:59.319Z,27.52
2023-03-19T05:53:25.903Z,28.85
2023-03-19T05:55:52.335Z,29.20
2023-03-19T05:58:18.867Z,28.90
2023-03-19T06:00:45.864Z,28.02
2023-03-19T06:03:12.365Z,28.77
2023-03-19T06:05:39.269Z,29.08
2023-03-19T06:08:06.204Z,28.23
2023-03-19T06:10:35.353Z,27.70
2023-03-19T06:13:02.095Z,27.98
2023-03-19T06:15:28.540Z,27.52
2023-03-19T06:17:54.987Z,27.65
2023-03-19T06:20:21.885Z,27.70
2023-03-19T06:22:48.403Z,28.02
2023-03-19T06:25:15.144Z,29.00
2023-03-19T06:27:41.624Z,28.13
2023-03-19T06:30:09.167Z,27.02
2023-03-19T06:32:36.159Z,27.77
2023-03-19T06:35:03.115Z,26.63
2023-03-19T06:37:29.529Z,31.08
2023-03-19T06:39:56.189Z,27.90
2023-03-19T06:42:23.032Z,27.88
2023-03-19T06:44:52.317Z,27.13
2023-03-19T06:49:46.440Z,26.17
2023-03-19T06:52:12.931Z,25.63
2023-03-19T06:54:39.397Z,26.70
2023-03-19T06:57:06.007Z,25.02
2023-03-19T06:59:32.793Z,26.77
2023-03-19T07:01:59.353Z,27.20
2023-03-19T07:04:26.035Z,24.60
2023-03-19T07:06:52.575Z,25.45
2023-03-19T07:09:19.021Z,26.27
2023-03-19T07:11:45.730Z,25.50
2023-03-19T07:14:12.220Z,24.58
2023-03-19T07:16:39.447Z,25.15
2023-03-19T07:19:05.986Z,24.33
2023-03-19T07:21:32.577Z,24.35
2023-03-19T07:23:59.290Z,26.80
2023-03-19T07:26:25.803Z,22.33
2023-03-19T07:28:52.446Z,23.33
2023-03-19T07:31:19.014Z,24.98
2023-03-19T07:33:45.426Z,22.58
2023-03-19T07:36:12.152Z,22.42
2023-03-19T07:38:38.647Z,23.35
2023-03-19T07:41:05.394Z,22.05
2023-03-19T07:43:31.883Z,20.55
2023-03-19T07:45:59.449Z,22.02
2023-03-19T07:48:26.206Z,20.63
2023-03-19T07:50:53.259Z,21.65
2023-03-19T07:53:20.548Z,19.15
2023-03-19T07:55:47.748Z,19.17
2023-03-19T07:58:14.776Z,19.48
2023-03-19T08:00:41.452Z,19.67
2023-03-19T08:03:08.364Z,18.38
2023-03-19T08:05:34.941Z,19.55
2023-03-19T08:08:01.777Z,22.45
2023-03-19T08:10:28.449Z,17.90
2023-03-19T08:12:54.934Z,18.75
2023-03-19T08:15:21.475Z,17.80
2023-03-19T08:17:49.076Z,18.02
2023-03-19T08:20:16.666Z,18.77
2023-03-19T08:22:43.253Z,17.15
2023-03-19T08:25:10.959Z,17.88
2023-03-19T08:27:37.843Z,17.60
2023-03-19T08:30:07.507Z,19.25
2023-03-19T08:32:34.362Z,19.52
2023-03-19T08:35:01.492Z,18.25
2023-03-19T08:37:28.182Z,18.13
2023-03-19T08:39:54.806Z,20.60
2023-03-19T08:42:22.644Z,17.40
2023-03-19T08:44:49.947Z,20.83
2023-03-19T08:47:16.534Z,17.55
2023-03-19T08:49:42.949Z,16.40
2023-03-19T08:52:10.485Z,17.67
2023-03-19T08:54:43.420Z,18.08
2023-03-19T08:57:10.043Z,16.58
2023-03-19T08:59:36.619Z,15.88
2023-03-19T09:02:03.640Z,15.85
2023-03-19T09:04:37.503Z,16.08
2023-03-19T09:07:03.983Z,15.77
2023-03-19T09:09:30.605Z,16.02
2023-03-19T09:11:57.030Z,14.77
2023-03-19T09:14:23.817Z,15.23
2023-03-19T09:16:50.694Z,14.52
2023-03-19T09:19:17.486Z,14.07
2023-03-19T09:21:44.718Z,14.10
2023-03-19T09:24:11.509Z,17.92
2023-03-19T09:26:38.024Z,12.98
2023-03-19T09:29:04.953Z,13.68
2023-03-19T09:31:31.524Z,12.88
2023-03-19T09:33:58.108Z,13.63
2023-03-19T09:36:25.503Z,13.80
2023-03-19T09:38:52.523Z,13.55
2023-03-19T09:41:49.560Z,14.05
2023-03-19T09:44:30.842Z,14.60
2023-03-19T09:47:32.468Z,16.40
2023-03-19T09:50:21.091Z,14.85
2023-03-19T09:52:50.895Z,13.57
2023-03-19T09:55:23.395Z,14.55
2023-03-19T09:57:51.426Z,14.10
2023-03-19T10:00:24.639Z,15.90
2023-03-19T10:03:18.483Z,14.82
2023-03-19T10:05:57.107Z,15.50
2023-03-19T10:08:46.729Z,15.88
2023-03-19T10:11:31.118Z,15.63
2023-03-19T10:14:32.479Z,15.90
2023-03-19T10:17:01.139Z,14.57
2023-03-19T10:19:47.415Z,15.95
2023-03-19T10:22:24.628Z,14.80
2023-03-19T10:24:56.204Z,14.90
2023-03-19T10:27:26.155Z,16.48
2023-03-19T10:29:52.693Z,14.45
2023-03-19T10:32:59.711Z,14.73
2023-03-19T10:35:41.252Z,13.30
2023-03-19T10:38:25.516Z,13.75
2023-03-19T10:41:31.752Z,13.60
2023-03-19T10:44:12.122Z,13.20
2023-03-19T10:46:39.851Z,13.38
2023-03-19T10:49:13.066Z,13.13
2023-03-19T10:51:39.989Z,13.18
2023-03-19T10:54:23.682Z,14.65
2023-03-19T10:56:51.443Z,17.17
2023-03-19T10:59:23.002Z,14.00
2023-03-19T11:01:49.622Z,14.57
2023-03-19T11:04:22.034Z,14.77
2023-03-19T11:09:51.537Z,15.98
2023-03-19T11:12:35.251Z,15.43
2023-03-19T11:15:07.683Z,21.10
2023-03-19T11:17:39.613Z,17.27
2023-03-19T11:20:22.581Z,17.73
2023-03-19T11:22:52.483Z,15.82
2023-03-19T11:25:23.730Z,16.95
2023-03-19T11:28:06.960Z,16.20
2023-03-19T11:30:43.920Z,16.67
2023-03-19T11:33:33.082Z,14.02
2023-03-19T11:36:13.757Z,12.90
2023-03-19T11:38:54.656Z,14.57
2023-03-19T11:41:49.201Z,14.18
2023-03-19T11:44:47.967Z,15.05
2023-03-19T11:47:40.919Z,14.18
2023-03-19T11:50:19.574Z,13.95
2023-03-19T11:53:07.911Z,14.32
2023-03-19T11:55:48.039Z,14.30
2023-03-19T11:58:52.073Z,14.13
2023-03-19T12:01:21.421Z,20.98
2023-03-19T12:04:00.236Z,14.00
2023-03-19T12:06:54.887Z,14.68
2023-03-19T12:09:38.948Z,15.48
2023-03-19T12:12:17.783Z,14.70
2023-03-19T12:15:22.566Z,12.95
2023-03-19T12:18:21.646Z,14.32
2023-03-19T12:21:50.469Z,13.40
2023-03-19T12:24:34.055Z,12.52
2023-03-19T12:27:35.055Z,13.52
2023-03-19T12:30:30.643Z,12.02
2023-03-19T12:33:09.155Z,12.20
2023-03-19T12:35:38.979Z,12.18
2023-03-19T12:38:21.448Z,11.02
2023-03-19T12:40:53.589Z,12.07
2023-03-19T12:43:43.070Z,12.13
2023-03-19T12:46:16.067Z,12.38
2023-03-19T12:48:51.216Z,11.75
2023-03-19T12:51:21.700Z,12.77
2023-03-19T12:54:01.468Z,15.20
2023-03-19T12:56:32.901Z,13.25
2023-03-19T12:59:13.655Z,13.43
2023-03-19T13:01:47.685Z,14.02
2023-03-19T13:04:26.367Z,12.32
2023-03-19T13:07:03.167Z,12.63
2023-03-19T13:09:43.902Z,13.43
2023-03-19T13:12:15.991Z,13.50
2023-03-19T13:15:14.504Z,12.25
2023-03-19T13:17:49.040Z,13.63
2023-03-19T13:20:40.544Z,13.30
2023-03-19T13:23:09.878Z,12.98
2023-03-19T13:25:42.868Z,13.43
2023-03-19T13:28:22.481Z,12.68
2023-03-19T13:31:00.801Z,13.48
2023-03-19T13:33:30.377Z,13.20
2023-03-19T13:35:57.738Z,14.85
2023-03-19T13:38:34.890Z,15.98
2023-03-19T13:41:02.172Z,15.10
2023-03-19T13:43:29.190Z,13.95
2023-03-19T13:46:15.820Z,15.38
2023-03-19T13:48:45.766Z,15.45
2023-03-19T13:51:12.296Z,18.98
2023-03-19T13:53:53.576Z,15.05
2023-03-19T13:56:29.542Z,15.02
2023-03-19T13:59:15.655Z,14.27
2023-03-19T14:01:44.800Z,13.93
2023-03-19T14:04:22.812Z,15.23
2023-03-19T14:06:53.326Z,13.98
2023-03-19T14:09:40.058Z,12.63
2023-03-19T14:12:23.201Z,13.82
2023-03-19T14:15:00.709Z,14.57
2023-03-19T14:17:34.566Z,13.43
2023-03-19T14:20:25.867Z,15.70
2023-03-19T14:23:39.468Z,13.63
2023-03-19T14:26:24.251Z,14.27
2023-03-19T14:28:58.788Z,14.65
2023-03-19T14:32:05.765Z,13.88
2023-03-19T14:34:42.945Z,13.98
2023-03-19T14:37:24.987Z,15.05
2023-03-19T14:40:00.006Z,15.05
2023-03-19T14:42:32.352Z,14.82
2023-03-19T14:45:31.138Z,15.57
2023-03-19T14:48:16.610Z,15.52
2023-03-19T14:51:23.118Z,15.13
2023-03-19T14:54:21.578Z,16.25
2023-03-19T14:56:48.753Z,16.25
2023-03-19T14:59:15.955Z,16.40
2023-03-19T15:01:49.987Z,17.60
2023-03-19T15:04:17.979Z,17.10
2023-03-19T15:06:57.879Z,19.00
2023-03-19T15:09:33.543Z,22.60
2023-03-19T15:12:18.020Z,21.35
2023-03-19T15:15:15.438Z,21.15
2023-03-19T15:17:45.308Z,20.88
2023-03-19T15:20:18.746Z,21.42
2023-03-19T15:22:54.636Z,25.33
2023-03-19T15:25:21.697Z,24.00
2023-03-19T15:28:13.651Z,28.15
2023-03-19T15:30:53.837Z,24.98
2023-03-19T15:33:40.885Z,25.80
2023-03-19T15:36:13.433Z,24.75
2023-03-19T15:39:02.922Z,25.05
2023-03-19T15:41:32.425Z,24.40
2023-03-19T15:44:06.384Z,25.98
2023-03-19T15:46:37.545Z,27.45
2023-03-19T15:49:30.349Z,25.85
2023-03-19T15:52:01.529Z,25.85
2023-03-19T15:54:28.387Z,25.65
2023-03-19T15:56:56.377Z,25.27
2023-03-19T15:59:27.397Z,26.25
2023-03-19T16:01:59.442Z,25.05
2023-03-19T16:04:29.607Z,24.80
2023-03-19T16:06:59.095Z,26.33
2023-03-19T16:09:33.166Z,25.95
2023-03-19T16:12:01.277Z,25.27
2023-03-19T16:14:35.756Z,26.05
2023-03-19T16:17:13.576Z,25.73
2023-03-19T16:19:52.533Z,26.88
2023-03-19T16:22:33.106Z,24.60
2023-03-19T16:25:01.914Z,26.65
2023-03-19T16:27:36.248Z,29.33
2023-03-19T16:30:04.115Z,27.55
2023-03-19T16:32:32.107Z,27.63
2023-03-19T16:35:12.420Z,31.42
2023-03-19T16:37:46.686Z,32.03
2023-03-19T16:40:13.251Z,38.30
2023-03-19T16:42:51.233Z,34.95
2023-03-19T16:45:27.449Z,29.00
2023-03-19T16:47:56.966Z,27.67
2023-03-19T16:50:44.201Z,27.00
2023-03-19T16:53:22.243Z,27.38
2023-03-19T16:55:49.318Z,25.98
2023-03-19T16:58:19.038Z,27.25
2023-03-19T17:00:48.865Z,29.33
2023-03-19T17:03:17.916Z,36.72
2023-03-19T17:05:46.399Z,29.55
2023-03-19T17:08:13.512Z,31.55
2023-03-19T17:10:49.337Z,29.10
2023-03-19T17:13:28.264Z,28.48
2023-03-19T17:15:56.947Z,27.75
2023-03-19T17:18:25.262Z,31.15
2023-03-19T17:21:00.758Z,37.15
2023-03-19T17:23:27.903Z,28.77
2023-03-19T17:25:54.886Z,29.02
2023-03-19T17:28:21.971Z,31.88
2023-03-19T17:30:49.152Z,32.25
2023-03-19T17:33:23.724Z,33.47
2023-03-19T17:35:51.468Z,32.78
2023-03-19T17:38:19.262Z,33.65
2023-03-19T17:40:46.475Z,39.92
2023-03-19T17:43:13.637Z,34.13
2023-03-19T17:45:49.214Z,36.42
2023-03-19T17:48:25.779Z,41.40
2023-03-19T17:50:58.208Z,39.47
2023-03-19T17:53:24.925Z,32.22
2023-03-19T17:55:51.922Z,34.13
2023-03-19T17:58:21.233Z,34.17
2023-03-19T18:00:49.958Z,35.57
2023-03-19T18:03:18.708Z,31.92
2023-03-19T18:05:45.640Z,30.83
2023-03-19T18:08:17.527Z,33.60
2023-03-19T18:10:44.493Z,32.28
2023-03-19T18:13:11.234Z,39.90
2023-03-19T18:15:40.193Z,31.92
2023-03-19T18:18:11.172Z,31.80
2023-03-19T18:20:39.579Z,32.72
2023-03-19T18:23:06.792Z,37.70
2023-03-19T18:25:35.503Z,37.80
2023-03-19T18:28:03.603Z,39.58
2023-03-19T18:30:33.427Z,35.25
2023-03-19T18:33:02.852Z,37.90
2023-03-19T18:35:36.463Z,44.58
2023-03-19T18:38:03.344Z,43.00
2023-03-19T18:40:33.026Z,39.60
2023-03-19T18:42:59.620Z,39.50
2023-03-19T18:45:30.933Z,37.75
2023-03-19T18:47:57.914Z,39.00
2023-03-19T18:50:29.338Z,38.58
2023-03-19T18:52:56.417Z,42.63
2023-03-19T18:55:30.346Z,44.90
2023-03-19T18:58:00.527Z,45.90
2023-03-19T19:00:33.464Z,50.58
2023-03-19T19:03:01.929Z,47.65
2023-03-19T19:05:30.781Z,45.20
2023-03-19T19:07:58.898Z,53.85
2023-03-19T19:10:30.953Z,55.67
2023-03-19T19:12:57.705Z,49.22
2023-03-19T19:15:25.760Z,58.33
2023-03-19T19:17:52.878Z,54.45
2023-03-19T19:20:25.582Z,51.67
2023-03-19T19:22:53.056Z,53.72
2023-03-19T19:25:25.558Z,53.80
2023-03-19T19:28:01.050Z,55.42
2023-03-19T19:30:28.797Z,57.47
2023-03-19T19:32:55.307Z,56.30
2023-03-19T19:35:24.515Z,65.07
2023-03-19T19:37:51.674Z,105.18
2023-03-19T19:40:21.392Z,77.88
2023-03-19T19:42:52.471Z,79.43
2023-03-19T19:45:23.846Z,81.50
2023-03-19T19:47:50.359Z,84.15
2023-03-19T19:50:18.549Z,81.78
2023-03-19T19:52:45.435Z,86.95
2023-03-19T19:55:11.938Z,90.20
2023-03-19T19:57:42.837Z,85.78
2023-03-19T20:00:16.857Z,92.55
2023-03-19T20:02:43.288Z,100.50
2023-03-19T20:05:23.160Z,98.90
2023-03-19T20:07:55.436Z,89.97
2023-03-19T20:10:24.429Z,89.22
2023-03-19T20:12:54.313Z,86.55
2023-03-19T20:15:27.341Z,85.70
2023-03-19T20:17:54.815Z,80.90
2023-03-19T20:20:32.357Z,86.32
2023-03-19T20:23:01.516Z,62.42
2023-03-19T20:25:30.602Z,77.30
2023-03-19T20:27:59.754Z,79.90
2023-03-19T20:30:38.787Z,73.90
2023-03-19T20:33:06.124Z,65.68
2023-03-19T20:35:36.101Z,64.10
2023-03-19T20:38:05.279Z,64.82
2023-03-19T20:40:34.255Z,61.22
2023-03-19T20:43:01.724Z,67.10
2023-03-19T20:45:36.909Z,62.85
2023-03-19T20:48:04.207Z,59.05
2023-03-19T20:50:33.028Z,56.38
2023-03-19T20:53:03.601Z,63.45
2023-03-19T20:55:33.849Z,56.35
2023-03-19T20:58:03.833Z,61.13
2023-03-19T21:00:33.121Z,56.10
2023-03-19T21:03:01.712Z,51.90
2023-03-19T21:05:34.419Z,50.88
2023-03-19T21:08:01.312Z,56.22
2023-03-19T21:10:43.007Z,61.67
2023-03-19T21:13:13.501Z,53.72
2023-03-19T21:15:40.679Z,55.70
2023-03-19T21:18:08.388Z,55.35
2023-03-19T21:20:35.829Z,55.78
2023-03-19T21:23:08.737Z,63.78
2023-03-19T21:25:36.749Z,58.30
2023-03-19T21:28:07.246Z,64.03
2023-03-19T21:30:41.502Z,64.97
2023-03-19T21:33:28.906Z,67.20
2023-03-19T21:35:56.463Z,60.50
2023-03-19T21:38:23.827Z,70.72
2023-03-19T21:40:53.974Z,66.43
2023-03-19T21:43:23.453Z,58.42
2023-03-19T21:45:51.482Z,63.10
2023-03-19T21:48:24.019Z,64.35
2023-03-19T21:50:51.873Z,64.93
2023-03-19T21:53:19.431Z,66.85
2023-03-19T21:55:46.417Z,65.50
2023-03-19T21:58:14.836Z,72.28
2023-03-19T22:00:41.718Z,68.97
2023-03-19T22:03:16.192Z,71.00
2023-03-19T22:05:42.721Z,66.00
2023-03-19T22:08:09.315Z,71.88
2023-03-19T22:10:36.484Z,73.40
2023-03-19T22:13:03.804Z,82.32
2023-03-19T22:15:37.665Z,87.80
2023-03-19T22:18:07.256Z,79.68
2023-03-19T22:20:33.698Z,81.03
2023-03-19T22:23:00.443Z,79.38
2023-03-19T22:25:35.332Z,82.90
2023-03-19T22:28:07.635Z,84.72
2023-03-19T22:30:37.218Z,78.70
2023-03-19T22:33:21.405Z,83.43
2023-03-19T22:35:51.798Z,86.65
2023-03-19T22:40:48.333Z,77.65
2023-03-19T22:43:30.626Z,86.82
2023-03-19T22:46:07.717Z,83.82
2023-03-19T22:48:34.460Z,82.82
2023-03-19T22:51:01.133Z,90.32
2023-03-19T22:53:36.419Z,91.05
2023-03-19T22:56:04.092Z,87.10
2023-03-19T22:58:31.182Z,94.45
2023-03-19T23:00:58.173Z,110.75
2023-03-19T23:03:34.816Z,96.68
2023-03-19T23:06:05.392Z,95.75
2023-03-19T23:08:31.898Z,89.25
2023-03-19T23:10:58.527Z,103.57
2023-03-19T23:13:25.811Z,107.45
2023-03-19T23:15:58.779Z,95.97
2023-03-19T23:18:36.731Z,102.38
2023-03-19T23:21:03.991Z,97.72
2023-03-19T23:23:33.710Z,99.70
2023-03-19T23:26:00.543Z,96.18
2023-03-19T23:28:31.988Z,103.78
2023-03-19T23:31:02.870Z,100.07
2023-03-19T23:33:30.324Z,104.47
2023-03-19T23:35:59.452Z,102.20
2023-03-19T23:38:26.474Z,96.70
2023-03-19T23:40:53.913Z,104.25
2023-03-19T23:43:27.239Z,110.50
2023-03-19T23:45:55.202Z,111.68
2023-03-19T23:48:26.621Z,107.60
2023-03-19T23:50:53.571Z,106.25
2023-03-19T23:53:25.153Z,115.35
2023-03-19T23:56:01.040Z,108.65
2023-03-19T23:58:42.857Z,102.25
